createdAt,value
2023-01-08T00:00:05.940Z,164.5
2023-01-08T00:05:06.172Z,164.9
2023-01-08T00:10:00.900Z,152.2
2023-01-08T00:15:00.977Z,148.0
2023-01-08T00:20:00.914Z,145.5
2023-01-08T00:25:02.089Z,145.8
2023-01-08T00:30:00.884Z,148.7
2023-01-08T00:35:01.918Z,148.1
2023-01-08T00:40:06.034Z,149.8
2023-01-08T00:45:05.911Z,148.0
2023-01-08T00:50:05.836Z,143.6
2023-01-08T00:55:00.959Z,161.4
2023-01-08T01:00:00.945Z,154.5
2023-01-08T01:05:00.954Z,148.2
2023-01-08T01:10:05.836Z,146.0
2023-01-08T01:15:06.077Z,142.2
2023-01-08T01:20:00.916Z,117.6
2023-01-08T01:25:00.894Z,117.8
2023-01-08T01:30:00.875Z,115.9
2023-01-08T01:35:02.014Z,110.4
2023-01-08T01:40:00.881Z,133.8
2023-01-08T01:45:01.015Z,128.8
2023-01-08T01:50:00.972Z,124.0
2023-01-08T01:55:01.135Z,121.9
2023-01-08T02:00:00.881Z,120.2
2023-01-08T02:05:01.037Z,90.7
2023-01-08T02:10:01.139Z,90.3
2023-01-08T02:15:06.149Z,90.5
2023-01-08T02:20:05.923Z,92.6
2023-01-08T02:25:01.010Z,100.4
2023-01-08T02:30:00.870Z,103.5
2023-01-08T02:35:02.145Z,113.2
2023-01-08T02:40:00.930Z,112.8
2023-01-08T02:45:00.932Z,110.9
2023-01-08T02:50:00.863Z,103.6
2023-01-08T02:55:01.129Z,102.1
2023-01-08T03:00:00.874Z,95.0
2023-01-08T03:05:01.007Z,96.1
2023-01-08T03:10:01.173Z,97.9
2023-01-08T03:15:06.069Z,108.2
2023-01-08T03:20:00.931Z,117.2
2023-01-08T03:25:00.935Z,125.6
2023-01-08T03:30:00.869Z,137.8
2023-01-08T03:35:01.021Z,155.8
2023-01-08T03:40:00.869Z,168.2
2023-01-08T04:00:01.411Z,150.4
2023-01-08T04:05:01.222Z,157.1
2023-01-08T04:10:06.119Z,150.7
2023-01-08T04:15:01.265Z,147.5
2023-01-08T04:20:01.555Z,175.6
2023-01-08T04:25:01.285Z,175.9
2023-01-08T04:30:06.265Z,174.2
2023-01-08T04:35:01.275Z,174.0
2023-01-08T04:40:01.195Z,185.4
2023-01-08T04:45:01.340Z,146.9
2023-01-08T04:50:01.174Z,136.0
2023-01-08T04:55:01.255Z,125.7
2023-01-08T05:00:01.363Z,123.0
2023-01-08T05:05:01.321Z,115.6
2023-01-08T05:10:01.424Z,122.7
2023-01-08T05:15:02.143Z,134.2
2023-01-08T05:20:01.146Z,144.8
2023-01-08T05:25:02.125Z,151.7
2023-01-08T05:30:01.087Z,147.1
2023-01-08T05:35:01.152Z,147.7
2023-01-08T05:40:01.199Z,148.1
2023-01-08T05:45:01.213Z,143.0
2023-01-08T05:50:06.081Z,145.4
2023-01-08T05:55:01.157Z,136.8
2023-01-08T06:05:01.316Z,120.2
2023-01-08T06:10:01.095Z,116.0
2023-01-08T06:15:01.242Z,111.1
2023-01-08T06:20:01.102Z,121.3
2023-01-08T06:25:01.262Z,130.5
2023-01-08T06:30:01.119Z,136.8
2023-01-08T06:35:01.181Z,142.4
2023-01-08T06:40:01.117Z,138.2
2023-01-08T06:45:01.362Z,137.5
2023-01-08T06:50:01.127Z,137.9
2023-01-08T06:55:01.259Z,137.0
2023-01-08T07:00:01.149Z,161.5
2023-01-08T07:05:01.348Z,163.7
2023-01-08T07:10:01.369Z,161.9
2023-01-08T07:15:01.174Z,158.0
2023-01-08T07:20:01.106Z,154.7
2023-01-08T07:25:01.351Z,125.4
2023-01-08T07:30:01.118Z,122.6
2023-01-08T07:35:01.246Z,120.8
2023-01-08T07:40:01.104Z,118.6
2023-01-08T07:45:06.218Z,127.6
2023-01-08T07:50:06.365Z,135.8
2023-01-08T07:55:01.227Z,144.2
2023-01-08T08:00:01.116Z,159.8
2023-01-08T08:05:01.360Z,175.6
2023-01-08T08:10:01.130Z,173.3
2023-01-08T08:15:01.245Z,172.3
2023-01-08T08:20:01.168Z,173.9
2023-01-08T08:25:01.297Z,168.7
2023-01-08T08:30:01.118Z,155.8
2023-01-08T08:35:01.196Z,144.9
2023-01-08T08:40:01.151Z,136.6
2023-01-08T08:45:01.436Z,121.8
2023-01-08T08:50:06.572Z,108.1
2023-01-08T08:55:01.199Z,118.8
2023-01-08T09:00:01.581Z,120.4
2023-01-08T09:05:01.357Z,121.1
2023-01-08T09:10:01.142Z,123.3
2023-01-08T09:15:01.221Z,126.6
2023-01-08T09:20:01.146Z,118.5
2023-01-08T09:25:01.417Z,125.2
2023-01-08T09:30:06.293Z,137.4
2023-01-08T09:35:01.286Z,148.2
2023-01-08T09:40:03.258Z,173.4
2023-01-08T09:45:01.500Z,182.2
2023-01-08T09:50:01.168Z,190.8
2023-01-08T09:55:01.318Z,190.5
2023-01-08T10:00:01.275Z,195.8
2023-01-08T10:05:01.382Z,187.5
2023-01-08T10:10:01.270Z,187.9
2023-01-08T10:15:01.391Z,191.0
2023-01-08T10:20:01.173Z,195.5
2023-01-08T10:40:01.385Z,109.6
2023-01-08T10:45:01.378Z,112.3
2023-01-08T10:50:01.307Z,117.3
2023-01-08T10:55:02.379Z,118.9
2023-01-08T11:10:00.893Z,122.4
2023-01-08T11:15:00.894Z,142.0
2023-01-08T11:20:00.753Z,148.2
2023-01-08T11:40:01.447Z,102.6
2023-01-08T11:45:01.477Z,115.6
2023-01-08T11:50:01.356Z,120.0
2023-01-08T12:10:01.049Z,110.8
2023-01-08T12:30:01.653Z,110.0
2023-01-08T12:50:01.158Z,169.6
2023-01-08T13:10:01.395Z,104.2
2023-01-08T13:15:01.422Z,103.3
2023-01-08T13:20:01.474Z,106.2
2023-01-08T13:25:02.351Z,109.1
2023-01-08T13:30:01.382Z,110.8
2023-01-08T13:35:01.461Z,116.7
2023-01-08T13:40:01.336Z,118.4
2023-01-08T13:45:01.510Z,116.3
2023-01-08T13:50:01.374Z,119.7
2023-01-08T13:55:01.403Z,123.0
2023-01-08T14:00:01.334Z,124.7
2023-01-08T14:05:01.485Z,132.6
2023-01-08T14:10:07.482Z,139.6
2023-01-08T14:15:01.482Z,144.7
2023-01-08T14:20:01.364Z,161.6
2023-01-08T14:25:01.938Z,169.0
2023-01-08T14:30:01.399Z,183.0
2023-01-08T14:35:01.542Z,197.3
2023-01-08T14:40:01.471Z,210.4
2023-01-08T14:45:01.589Z,214.1
2023-01-08T14:50:01.406Z,226.4
2023-01-08T14:55:01.430Z,232.2
2023-01-08T15:00:02.369Z,236.0
2023-01-08T15:05:01.590Z,233.1
2023-01-08T15:20:01.038Z,184.4
2023-01-08T15:25:01.017Z,175.9
2023-01-08T15:30:01.478Z,176.5
2023-01-08T15:35:00.999Z,185.2
2023-01-08T15:40:00.972Z,193.8
2023-01-08T15:45:07.151Z,240.7
2023-01-08T15:50:00.933Z,255.0
2023-01-08T15:55:01.066Z,263.3
2023-01-08T16:00:01.087Z,268.7
2023-01-08T16:05:01.000Z,262.0
2023-01-08T16:10:00.936Z,217.2
2023-01-08T16:15:01.019Z,206.8
2023-01-08T16:20:00.969Z,200.4
2023-01-08T16:25:01.069Z,188.8
2023-01-08T16:30:01.338Z,187.6
2023-01-08T16:35:01.066Z,186.3
2023-01-08T16:40:00.990Z,200.0
2023-01-08T16:45:01.019Z,201.8
2023-01-08T16:50:00.935Z,202.5
2023-01-08T16:55:01.287Z,198.2
2023-01-08T17:00:01.006Z,190.6
2023-01-08T17:05:01.041Z,169.1
2023-01-08T17:10:00.986Z,165.3
2023-01-08T17:15:01.035Z,163.0
2023-01-08T17:20:01.021Z,171.3
2023-01-08T17:25:01.132Z,179.9
2023-01-08T17:30:01.456Z,193.9
2023-01-08T17:35:01.072Z,202.7
2023-01-08T17:40:01.128Z,214.7
2023-01-08T17:45:01.080Z,224.0
2023-01-08T17:50:01.056Z,224.6
2023-01-08T17:55:01.320Z,219.8
2023-01-08T18:00:01.049Z,209.1
2023-01-08T18:05:01.074Z,198.9
2023-01-08T18:10:01.119Z,189.3
2023-01-08T18:15:02.175Z,188.6
2023-01-08T18:20:00.983Z,191.4
2023-01-08T18:25:02.059Z,203.8
2023-01-08T18:30:01.345Z,203.0
2023-01-08T18:35:01.097Z,199.5
2023-01-08T18:40:01.001Z,193.9
2023-01-08T18:45:01.052Z,182.5
2023-01-08T18:50:00.971Z,174.7
2023-01-08T19:00:00.983Z,179.0
2023-01-08T19:05:01.011Z,185.6
2023-01-08T19:10:00.959Z,206.9
2023-01-08T19:15:01.531Z,224.6
2023-01-08T19:20:01.034Z,270.4
2023-01-08T19:25:01.049Z,258.4
2023-01-08T19:30:01.155Z,259.3
2023-01-08T19:35:01.445Z,268.4
2023-01-08T19:40:00.995Z,240.3
2023-01-08T19:45:01.123Z,191.2
2023-01-08T19:50:00.961Z,205.2
2023-01-08T19:55:01.091Z,210.8
2023-01-08T20:00:00.977Z,180.2
2023-01-08T20:05:06.071Z,177.3
2023-01-08T20:10:01.255Z,174.6
2023-01-08T20:15:01.005Z,180.7
2023-01-08T20:20:00.968Z,209.3
2023-01-08T20:25:01.096Z,207.8
2023-01-08T20:30:01.083Z,213.0
2023-01-08T20:35:02.006Z,214.7
2023-01-08T20:40:00.960Z,233.2
2023-01-08T20:45:01.029Z,184.7
2023-01-08T20:50:03.236Z,187.6
2023-01-08T20:55:01.009Z,190.8
2023-01-08T21:00:00.905Z,188.2
2023-01-08T21:05:01.065Z,257.1
2023-01-08T21:10:00.908Z,269.2
2023-01-08T21:15:01.000Z,306.5
2023-01-08T21:20:01.115Z,356.0
2023-01-08T21:25:01.026Z,350.0
2023-01-08T21:30:01.999Z,279.9
2023-01-08T21:35:01.091Z,329.6
2023-01-08T21:45:01.088Z,251.0
2023-01-08T21:50:01.021Z,285.4
2023-01-08T21:55:01.137Z,332.8
2023-01-08T22:00:01.020Z,306.7
2023-01-08T22:05:01.132Z,332.6
2023-01-08T22:10:01.136Z,390.8
2023-01-08T22:15:01.244Z,376.8
2023-01-08T22:20:01.351Z,322.9
2023-01-08T22:25:01.192Z,357.1
2023-01-08T22:30:01.004Z,372.3
2023-01-08T22:35:01.193Z,311.5
2023-01-08T22:40:01.237Z,327.3
2023-01-08T22:45:02.151Z,333.1
2023-01-08T22:50:00.968Z,314.8
2023-01-08T22:55:01.042Z,279.9
2023-01-08T23:00:01.017Z,296.8
2023-01-08T23:05:01.148Z,303.0
2023-01-08T23:10:00.990Z,277.6
2023-01-08T23:15:01.058Z,248.5
2023-01-08T23:20:01.361Z,279.7
2023-01-08T23:25:01.239Z,281.8
2023-01-08T23:30:00.998Z,313.1
2023-01-08T23:35:01.628Z,392.4
2023-01-08T23:40:01.032Z,416.1
2023-01-08T23:45:01.101Z,469.6
2023-01-08T23:50:02.044Z,543.9
2023-01-08T23:55:01.075Z,489.6
